sensor_id;sensor_type;location;lat;lon;timestamp;pressure;altitude;pressure_sealevel;temperature;humidity
74790;BME280;63318;52.406;13.416;2023-10-09T00:01:44;101933.60;;;10.71;71.43
74790;BME280;63318;52.406;13.416;2023-10-09T00:04:12;101934.52;;;10.70;71.76
74790;BME280;63318;52.406;13.416;2023-10-09T00:06:40;101930.93;;;10.69;71.93
74790;BME280;63318;52.406;13.416;2023-10-09T00:09:09;101923.50;;;10.67;72.11
74790;BME280;63318;52.406;13.416;2023-10-09T00:11:38;101915.85;;;10.65;72.59
74790;BME280;63318;52.406;13.416;2023-10-09T00:14:06;101906.49;;;10.64;72.90
74790;BME280;63318;52.406;13.416;2023-10-09T00:16:34;101904.48;;;10.63;73.02
74790;BME280;63318;52.406;13.416;2023-10-09T00:19:03;101914.16;;;10.62;73.31
74790;BME280;63318;52.406;13.416;2023-10-09T00:21:32;101907.60;;;10.61;73.65
74790;BME280;63318;52.406;13.416;2023-10-09T00:24:00;101902.23;;;10.60;73.89
74790;BME280;63318;52.406;13.416;2023-10-09T00:26:28;101899.70;;;10.59;74.14
74790;BME280;63318;52.406;13.416;2023-10-09T00:28:56;101891.78;;;10.57;74.41
74790;BME280;63318;52.406;13.416;2023-10-09T00:31:24;101884.58;;;10.56;74.41
74790;BME280;63318;52.406;13.416;2023-10-09T00:33:52;101877.61;;;10.54;74.50
74790;BME280;63318;52.406;13.416;2023-10-09T00:36:21;101869.13;;;10.53;74.77
74790;BME280;63318;52.406;13.416;2023-10-09T00:38:49;101863.34;;;10.52;74.87
74790;BME280;63318;52.406;13.416;2023-10-09T00:41:17;101858.88;;;10.51;75.10
74790;BME280;63318;52.406;13.416;2023-10-09T00:43:45;101856.45;;;10.49;75.20
74790;BME280;63318;52.406;13.416;2023-10-09T00:46:13;101851.56;;;10.47;75.31
74790;BME280;63318;52.406;13.416;2023-10-09T00:48:42;101846.30;;;10.45;75.19
74790;BME280;63318;52.406;13.416;2023-10-09T00:51:10;101843.54;;;10.43;75.27
74790;BME280;63318;52.406;13.416;2023-10-09T00:53:38;101837.27;;;10.40;75.39
74790;BME280;63318;52.406;13.416;2023-10-09T00:56:07;101832.12;;;10.39;75.69
74790;BME280;63318;52.406;13.416;2023-10-09T00:58:35;101832.38;;;10.38;75.90
74790;BME280;63318;52.406;13.416;2023-10-09T01:01:03;101825.91;;;10.37;76.03
74790;BME280;63318;52.406;13.416;2023-10-09T01:03:31;101821.16;;;10.36;76.14
74790;BME280;63318;52.406;13.416;2023-10-09T01:06:02;101815.52;;;10.34;76.10
74790;BME280;63318;52.406;13.416;2023-10-09T01:08:31;101810.84;;;10.33;76.30
74790;BME280;63318;52.406;13.416;2023-10-09T01:10:59;101815.23;;;10.31;76.23
74790;BME280;63318;52.406;13.416;2023-10-09T01:13:27;101812.56;;;10.30;76.63
74790;BME280;63318;52.406;13.416;2023-10-09T01:15:56;101800.87;;;10.30;76.70
74790;BME280;63318;52.406;13.416;2023-10-09T01:18:24;101803.20;;;10.29;76.55
74790;BME280;63318;52.406;13.416;2023-10-09T01:20:53;101793.77;;;10.28;76.98
74790;BME280;63318;52.406;13.416;2023-10-09T01:23:21;101784.67;;;10.28;77.08
74790;BME280;63318;52.406;13.416;2023-10-09T01:25:49;101780.71;;;10.27;76.90
74790;BME280;63318;52.406;13.416;2023-10-09T01:28:18;101776.14;;;10.26;76.91
74790;BME280;63318;52.406;13.416;2023-10-09T01:30:46;101770.39;;;10.24;76.82
74790;BME280;63318;52.406;13.416;2023-10-09T01:33:14;101758.54;;;10.23;76.95
74790;BME280;63318;52.406;13.416;2023-10-09T01:35:42;101745.63;;;10.22;76.97
74790;BME280;63318;52.406;13.416;2023-10-09T01:38:10;101728.98;;;10.21;76.82
74790;BME280;63318;52.406;13.416;2023-10-09T01:40:39;101730.90;;;10.19;76.76
74790;BME280;63318;52.406;13.416;2023-10-09T01:43:07;101729.27;;;10.18;76.94
74790;BME280;63318;52.406;13.416;2023-10-09T01:45:35;101710.09;;;10.17;76.73
74790;BME280;63318;52.406;13.416;2023-10-09T01:48:04;101702.29;;;10.15;76.90
74790;BME280;63318;52.406;13.416;2023-10-09T01:50:34;101701.70;;;10.14;76.87
74790;BME280;63318;52.406;13.416;2023-10-09T01:53:03;101686.83;;;10.12;77.06
74790;BME280;63318;52.406;13.416;2023-10-09T01:55:31;101670.35;;;10.10;76.85
74790;BME280;63318;52.406;13.416;2023-10-09T01:58:00;101669.80;;;10.09;77.12
74790;BME280;63318;52.406;13.416;2023-10-09T02:00:28;101674.49;;;10.08;76.93
74790;BME280;63318;52.406;13.416;2023-10-09T02:02:56;101676.48;;;10.06;77.33
74790;BME280;63318;52.406;13.416;2023-10-09T02:05:24;101676.02;;;10.04;77.50
74790;BME280;63318;52.406;13.416;2023-10-09T02:07:53;101678.74;;;10.03;77.70
74790;BME280;63318;52.406;13.416;2023-10-09T02:10:22;101675.73;;;10.02;77.90
74790;BME280;63318;52.406;13.416;2023-10-09T02:12:51;101664.39;;;10.02;77.70
74790;BME280;63318;52.406;13.416;2023-10-09T02:15:19;101650.50;;;10.01;77.65
74790;BME280;63318;52.406;13.416;2023-10-09T02:17:47;101637.15;;;9.99;77.79
74790;BME280;63318;52.406;13.416;2023-10-09T02:20:16;101637.23;;;9.98;77.73
74790;BME280;63318;52.406;13.416;2023-10-09T02:22:44;101652.73;;;9.97;77.89
74790;BME280;63318;52.406;13.416;2023-10-09T02:25:12;101667.06;;;9.97;77.87
74790;BME280;63318;52.406;13.416;2023-10-09T02:27:40;101673.16;;;9.97;77.88
74790;BME280;63318;52.406;13.416;2023-10-09T02:30:10;101672.00;;;9.97;77.79
74790;BME280;63318;52.406;13.416;2023-10-09T02:32:38;101665.08;;;9.96;78.22
74790;BME280;63318;52.406;13.416;2023-10-09T02:35:08;101660.69;;;9.97;78.50
74790;BME280;63318;52.406;13.416;2023-10-09T02:37:36;101649.20;;;9.97;78.50
74790;BME280;63318;52.406;13.416;2023-10-09T02:40:07;101650.92;;;9.97;78.46
74790;BME280;63318;52.406;13.416;2023-10-09T02:42:35;101660.30;;;9.97;78.54
74790;BME280;63318;52.406;13.416;2023-10-09T02:45:04;101660.35;;;9.97;78.74
74790;BME280;63318;52.406;13.416;2023-10-09T02:47:32;101656.64;;;9.97;78.75
74790;BME280;63318;52.406;13.416;2023-10-09T02:50:00;101646.04;;;9.97;78.85
74790;BME280;63318;52.406;13.416;2023-10-09T02:52:28;101650.91;;;9.97;78.95
74790;BME280;63318;52.406;13.416;2023-10-09T02:54:57;101633.77;;;9.96;78.93
74790;BME280;63318;52.406;13.416;2023-10-09T02:57:27;101624.30;;;9.95;79.15
74790;BME280;63318;52.406;13.416;2023-10-09T02:59:55;101619.70;;;9.95;79.01
74790;BME280;63318;52.406;13.416;2023-10-09T03:02:23;101612.70;;;9.95;79.28
74790;BME280;63318;52.406;13.416;2023-10-09T03:04:52;101599.91;;;9.94;79.07
74790;BME280;63318;52.406;13.416;2023-10-09T03:07:20;101591.90;;;9.93;79.10
74790;BME280;63318;52.406;13.416;2023-10-09T03:09:48;101583.41;;;9.93;79.15
74790;BME280;63318;52.406;13.416;2023-10-09T03:12:16;101576.07;;;9.93;79.05
74790;BME280;63318;52.406;13.416;2023-10-09T03:14:44;101575.63;;;9.93;79.14
74790;BME280;63318;52.406;13.416;2023-10-09T03:17:12;101568.16;;;9.92;79.39
74790;BME280;63318;52.406;13.416;2023-10-09T03:19:41;101554.63;;;9.92;79.50
74790;BME280;63318;52.406;13.416;2023-10-09T03:22:09;101558.55;;;9.91;79.50
74790;BME280;63318;52.406;13.416;2023-10-09T03:24:38;101554.89;;;9.91;79.78
74790;BME280;63318;52.406;13.416;2023-10-09T03:27:06;101549.89;;;9.91;80.04
74790;BME280;63318;52.406;13.416;2023-10-09T03:29:34;101543.20;;;9.92;80.13
74790;BME280;63318;52.406;13.416;2023-10-09T03:32:03;101538.14;;;9.92;80.04
74790;BME280;63318;52.406;13.416;2023-10-09T03:34:31;101535.52;;;9.92;80.02
74790;BME280;63318;52.406;13.416;2023-10-09T03:36:59;101532.48;;;9.93;80.23
74790;BME280;63318;52.406;13.416;2023-10-09T03:39:27;101528.04;;;9.92;80.18
74790;BME280;63318;52.406;13.416;2023-10-09T03:41:57;101525.44;;;9.93;80.18
74790;BME280;63318;52.406;13.416;2023-10-09T03:44:25;101521.77;;;9.92;80.17
74790;BME280;63318;52.406;13.416;2023-10-09T03:46:54;101508.34;;;9.92;79.98
74790;BME280;63318;52.406;13.416;2023-10-09T03:49:22;101500.29;;;9.92;80.01
74790;BME280;63318;52.406;13.416;2023-10-09T03:51:50;101501.65;;;9.91;80.04
74790;BME280;63318;52.406;13.416;2023-10-09T03:54:18;101492.25;;;9.90;80.23
74790;BME280;63318;52.406;13.416;2023-10-09T03:56:47;101474.92;;;9.89;80.18
74790;BME280;63318;52.406;13.416;2023-10-09T03:59:15;101462.77;;;9.89;80.27
74790;BME280;63318;52.406;13.416;2023-10-09T04:01:43;101460.60;;;9.89;80.23
74790;BME280;63318;52.406;13.416;2023-10-09T04:04:11;101454.42;;;9.88;80.05
74790;BME280;63318;52.406;13.416;2023-10-09T04:06:39;101446.81;;;9.87;80.29
74790;BME280;63318;52.406;13.416;2023-10-09T04:09:09;101448.36;;;9.87;80.20
74790;BME280;63318;52.406;13.416;2023-10-09T04:11:38;101453.45;;;9.86;80.50
74790;BME280;63318;52.406;13.416;2023-10-09T04:14:06;101466.65;;;9.86;80.69
74790;BME280;63318;52.406;13.416;2023-10-09T04:16:34;101474.75;;;9.86;80.87
74790;BME280;63318;52.406;13.416;2023-10-09T04:19:02;101479.88;;;9.86;80.95
74790;BME280;63318;52.406;13.416;2023-10-09T04:21:31;101480.88;;;9.87;81.01
74790;BME280;63318;52.406;13.416;2023-10-09T04:23:59;101476.58;;;9.88;80.90
74790;BME280;63318;52.406;13.416;2023-10-09T04:26:27;101479.64;;;9.89;81.06
74790;BME280;63318;52.406;13.416;2023-10-09T04:28:55;101483.65;;;9.90;80.99
74790;BME280;63318;52.406;13.416;2023-10-09T04:31:23;101479.39;;;9.90;80.69
74790;BME280;63318;52.406;13.416;2023-10-09T04:33:51;101468.45;;;9.90;80.98
74790;BME280;63318;52.406;13.416;2023-10-09T04:36:20;101475.42;;;9.90;81.05
74790;BME280;63318;52.406;13.416;2023-10-09T04:38:48;101493.70;;;9.90;80.75
74790;BME280;63318;52.406;13.416;2023-10-09T04:41:16;101477.08;;;9.89;80.69
74790;BME280;63318;52.406;13.416;2023-10-09T04:43:44;101467.52;;;9.88;81.23
74790;BME280;63318;52.406;13.416;2023-10-09T04:46:13;101482.13;;;9.88;81.29
74790;BME280;63318;52.406;13.416;2023-10-09T04:48:41;101482.46;;;9.89;81.30
74790;BME280;63318;52.406;13.416;2023-10-09T04:51:09;101476.09;;;9.89;81.51
74790;BME280;63318;52.406;13.416;2023-10-09T04:53:37;101486.65;;;9.90;81.24
74790;BME280;63318;52.406;13.416;2023-10-09T04:56:05;101482.98;;;9.90;81.39
74790;BME280;63318;52.406;13.416;2023-10-09T04:58:34;101467.89;;;9.90;81.11
74790;BME280;63318;52.406;13.416;2023-10-09T05:01:02;101458.83;;;9.89;81.22
74790;BME280;63318;52.406;13.416;2023-10-09T05:03:30;101461.92;;;9.89;81.39
74790;BME280;63318;52.406;13.416;2023-10-09T05:05:58;101454.34;;;9.86;81.12
74790;BME280;63318;52.406;13.416;2023-10-09T05:08:27;101445.98;;;9.85;81.19
74790;BME280;63318;52.406;13.416;2023-10-09T05:10:55;101444.65;;;9.84;81.22
74790;BME280;63318;52.406;13.416;2023-10-09T05:13:24;101448.16;;;9.85;81.29
74790;BME280;63318;52.406;13.416;2023-10-09T05:15:52;101447.81;;;9.84;81.41
74790;BME280;63318;52.406;13.416;2023-10-09T05:18:21;101450.04;;;9.84;81.23
74790;BME280;63318;52.406;13.416;2023-10-09T05:20:49;101448.80;;;9.84;81.51
74790;BME280;63318;52.406;13.416;2023-10-09T05:23:17;101452.35;;;9.84;81.47
74790;BME280;63318;52.406;13.416;2023-10-09T05:25:47;101445.41;;;9.83;81.34
74790;BME280;63318;52.406;13.416;2023-10-09T05:28:15;101450.42;;;9.81;81.10
74790;BME280;63318;52.406;13.416;2023-10-09T05:30:43;101443.13;;;9.79;81.18
74790;BME280;63318;52.406;13.416;2023-10-09T05:33:11;101435.98;;;9.76;80.93
74790;BME280;63318;52.406;13.416;2023-10-09T05:35:39;101443.23;;;9.75;81.06
74790;BME280;63318;52.406;13.416;2023-10-09T05:38:10;101442.96;;;9.73;81.07
74790;BME280;63318;52.406;13.416;2023-10-09T05:40:38;101435.02;;;9.72;81.07
74790;BME280;63318;52.406;13.416;2023-10-09T05:43:06;101439.66;;;9.71;81.11
74790;BME280;63318;52.406;13.416;2023-10-09T05:45:35;101441.43;;;9.70;81.01
74790;BME280;63318;52.406;13.416;2023-10-09T05:48:03;101439.23;;;9.69;81.05
74790;BME280;63318;52.406;13.416;2023-10-09T05:50:32;101438.21;;;9.67;81.26
74790;BME280;63318;52.406;13.416;2023-10-09T05:53:00;101441.30;;;9.67;81.33
74790;BME280;63318;52.406;13.416;2023-10-09T05:55:30;101443.61;;;9.66;81.46
74790;BME280;63318;52.406;13.416;2023-10-09T05:57:58;101447.28;;;9.66;81.38
74790;BME280;63318;52.406;13.416;2023-10-09T06:00:27;101443.58;;;9.67;81.68
74790;BME280;63318;52.406;13.416;2023-10-09T06:02:55;101440.55;;;9.68;81.71
74790;BME280;63318;52.406;13.416;2023-10-09T06:05:24;101440.39;;;9.69;81.91
74790;BME280;63318;52.406;13.416;2023-10-09T06:07:52;101445.41;;;9.70;81.69
74790;BME280;63318;52.406;13.416;2023-10-09T06:10:20;101450.61;;;9.69;81.49
74790;BME280;63318;52.406;13.416;2023-10-09T06:12:48;101448.06;;;9.69;81.71
74790;BME280;63318;52.406;13.416;2023-10-09T06:15:17;101449.13;;;9.69;81.45
74790;BME280;63318;52.406;13.416;2023-10-09T06:17:45;101445.67;;;9.69;81.58
74790;BME280;63318;52.406;13.416;2023-10-09T06:20:13;101449.61;;;9.69;81.82
74790;BME280;63318;52.406;13.416;2023-10-09T06:22:41;101451.05;;;9.69;81.74
74790;BME280;63318;52.406;13.416;2023-10-09T06:25:10;101445.96;;;9.70;81.61
74790;BME280;63318;52.406;13.416;2023-10-09T06:27:38;101444.40;;;9.69;81.61
74790;BME280;63318;52.406;13.416;2023-10-09T06:30:08;101435.30;;;9.69;81.60
74790;BME280;63318;52.406;13.416;2023-10-09T06:32:36;101436.41;;;9.69;81.72
74790;BME280;63318;52.406;13.416;2023-10-09T06:35:06;101436.18;;;9.69;81.71
74790;BME280;63318;52.406;13.416;2023-10-09T06:37:35;101439.33;;;9.71;81.86
74790;BME280;63318;52.406;13.416;2023-10-09T06:40:04;101432.46;;;9.72;81.80
74790;BME280;63318;52.406;13.416;2023-10-09T06:42:32;101429.36;;;9.72;81.70
74790;BME280;63318;52.406;13.416;2023-10-09T06:45:02;101428.00;;;9.74;81.85
74790;BME280;63318;52.406;13.416;2023-10-09T06:47:31;101419.55;;;9.76;81.97
74790;BME280;63318;52.406;13.416;2023-10-09T06:49:59;101413.34;;;9.79;82.14
74790;BME280;63318;52.406;13.416;2023-10-09T06:52:27;101410.77;;;9.82;82.29
74790;BME280;63318;52.406;13.416;2023-10-09T06:54:56;101416.70;;;9.86;82.15
74790;BME280;63318;52.406;13.416;2023-10-09T06:57:24;101421.73;;;9.88;82.29
74790;BME280;63318;52.406;13.416;2023-10-09T06:59:52;101418.77;;;9.90;82.06
74790;BME280;63318;52.406;13.416;2023-10-09T07:02:20;101417.55;;;9.93;82.12
74790;BME280;63318;52.406;13.416;2023-10-09T07:04:49;101414.05;;;9.96;82.22
74790;BME280;63318;52.406;13.416;2023-10-09T07:07:17;101405.64;;;9.99;82.18
74790;BME280;63318;52.406;13.416;2023-10-09T07:09:45;101396.33;;;10.02;82.18
74790;BME280;63318;52.406;13.416;2023-10-09T07:12:13;101400.81;;;10.05;81.92
74790;BME280;63318;52.406;13.416;2023-10-09T07:14:42;101404.23;;;10.08;82.02
74790;BME280;63318;52.406;13.416;2023-10-09T07:17:10;101405.41;;;10.11;81.95
74790;BME280;63318;52.406;13.416;2023-10-09T07:19:39;101411.30;;;10.14;81.95
74790;BME280;63318;52.406;13.416;2023-10-09T07:22:07;101409.02;;;10.18;82.25
74790;BME280;63318;52.406;13.416;2023-10-09T07:24:35;101411.34;;;10.21;82.08
74790;BME280;63318;52.406;13.416;2023-10-09T07:27:04;101411.27;;;10.23;82.10
74790;BME280;63318;52.406;13.416;2023-10-09T07:29:32;101408.31;;;10.26;82.38
74790;BME280;63318;52.406;13.416;2023-10-09T07:32:00;101409.55;;;10.30;81.97
74790;BME280;63318;52.406;13.416;2023-10-09T07:34:28;101409.25;;;10.34;82.22
74790;BME280;63318;52.406;13.416;2023-10-09T07:36:57;101415.46;;;10.38;82.31
74790;BME280;63318;52.406;13.416;2023-10-09T07:39:26;101415.77;;;10.43;82.23
74790;BME280;63318;52.406;13.416;2023-10-09T07:41:54;101421.39;;;10.47;81.91
74790;BME280;63318;52.406;13.416;2023-10-09T07:44:22;101416.48;;;10.51;81.89
74790;BME280;63318;52.406;13.416;2023-10-09T07:46:50;101404.71;;;10.54;81.77
74790;BME280;63318;52.406;13.416;2023-10-09T07:49:19;101406.87;;;10.58;81.51
74790;BME280;63318;52.406;13.416;2023-10-09T07:51:47;101414.95;;;10.62;81.41
74790;BME280;63318;52.406;13.416;2023-10-09T07:54:15;101414.16;;;10.64;81.44
74790;BME280;63318;52.406;13.416;2023-10-09T07:56:44;101407.65;;;10.68;81.51
74790;BME280;63318;52.406;13.416;2023-10-09T07:59:13;101408.15;;;10.71;81.66
74790;BME280;63318;52.406;13.416;2023-10-09T08:01:42;101412.41;;;10.74;81.58
74790;BME280;63318;52.406;13.416;2023-10-09T08:04:10;101431.79;;;10.78;81.49
74790;BME280;63318;52.406;13.416;2023-10-09T08:06:41;101440.71;;;10.80;81.37
74790;BME280;63318;52.406;13.416;2023-10-09T08:09:09;101435.85;;;10.83;81.51
74790;BME280;63318;52.406;13.416;2023-10-09T08:11:38;101435.05;;;10.85;81.51
74790;BME280;63318;52.406;13.416;2023-10-09T08:14:07;101436.19;;;10.87;81.41
74790;BME280;63318;52.406;13.416;2023-10-09T08:16:35;101451.88;;;10.88;81.38
74790;BME280;63318;52.406;13.416;2023-10-09T08:19:04;101466.14;;;10.91;81.49
74790;BME280;63318;52.406;13.416;2023-10-09T08:21:32;101472.84;;;10.92;81.48
74790;BME280;63318;52.406;13.416;2023-10-09T08:24:00;101471.36;;;10.95;81.38
74790;BME280;63318;52.406;13.416;2023-10-09T08:26:29;101463.94;;;10.96;81.24
74790;BME280;63318;52.406;13.416;2023-10-09T08:28:57;101459.72;;;10.96;81.08
74790;BME280;63318;52.406;13.416;2023-10-09T08:31:25;101464.86;;;10.98;81.09
74790;BME280;63318;52.406;13.416;2023-10-09T08:33:54;101470.48;;;10.99;81.24
74790;BME280;63318;52.406;13.416;2023-10-09T08:36:22;101470.98;;;10.99;81.36
74790;BME280;63318;52.406;13.416;2023-10-09T08:38:50;101461.70;;;11.00;81.25
74790;BME280;63318;52.406;13.416;2023-10-09T08:41:19;101463.33;;;11.01;81.01
74790;BME280;63318;52.406;13.416;2023-10-09T08:43:50;101459.89;;;11.02;80.96
74790;BME280;63318;52.406;13.416;2023-10-09T08:46:20;101457.67;;;11.02;80.92
74790;BME280;63318;52.406;13.416;2023-10-09T08:48:49;101450.27;;;11.02;80.88
74790;BME280;63318;52.406;13.416;2023-10-09T08:51:19;101451.95;;;11.02;80.82
74790;BME280;63318;52.406;13.416;2023-10-09T08:53:48;101452.34;;;11.03;80.81
74790;BME280;63318;52.406;13.416;2023-10-09T08:56:19;101446.84;;;11.03;80.74
74790;BME280;63318;52.406;13.416;2023-10-09T08:58:47;101444.05;;;11.03;80.66
74790;BME280;63318;52.406;13.416;2023-10-09T09:01:19;101444.11;;;11.02;80.56
74790;BME280;63318;52.406;13.416;2023-10-09T09:03:48;101441.77;;;11.02;80.71
74790;BME280;63318;52.406;13.416;2023-10-09T09:06:18;101441.38;;;11.02;80.59
74790;BME280;63318;52.406;13.416;2023-10-09T09:08:47;101435.20;;;11.02;80.73
74790;BME280;63318;52.406;13.416;2023-10-09T09:11:17;101432.71;;;11.03;80.74
74790;BME280;63318;52.406;13.416;2023-10-09T09:13:47;101438.98;;;11.03;80.65
74790;BME280;63318;52.406;13.416;2023-10-09T09:16:17;101439.77;;;11.03;80.72
74790;BME280;63318;52.406;13.416;2023-10-09T09:18:57;101435.88;;;11.03;80.57
74790;BME280;63318;52.406;13.416;2023-10-09T09:21:26;101435.81;;;11.02;80.54
74790;BME280;63318;52.406;13.416;2023-10-09T09:23:59;101432.19;;;11.02;80.49
74790;BME280;63318;52.406;13.416;2023-10-09T09:26:38;101430.42;;;11.02;80.56
74790;BME280;63318;52.406;13.416;2023-10-09T09:29:07;101420.37;;;11.04;80.67
74790;BME280;63318;52.406;13.416;2023-10-09T09:31:36;101421.23;;;11.05;80.47
74790;BME280;63318;52.406;13.416;2023-10-09T09:34:05;101424.73;;;11.06;80.40
74790;BME280;63318;52.406;13.416;2023-10-09T09:36:36;101426.48;;;11.07;80.33
74790;BME280;63318;52.406;13.416;2023-10-09T09:39:04;101422.73;;;11.06;80.17
74790;BME280;63318;52.406;13.416;2023-10-09T09:41:33;101428.84;;;11.06;80.33
74790;BME280;63318;52.406;13.416;2023-10-09T09:44:02;101435.02;;;11.05;80.46
74790;BME280;63318;52.406;13.416;2023-10-09T09:46:34;101434.76;;;11.07;80.79
74790;BME280;63318;52.406;13.416;2023-10-09T09:49:04;101437.73;;;11.10;80.89
74790;BME280;63318;52.406;13.416;2023-10-09T09:51:32;101438.17;;;11.13;80.67
74790;BME280;63318;52.406;13.416;2023-10-09T09:54:01;101439.85;;;11.15;80.62
74790;BME280;63318;52.406;13.416;2023-10-09T09:56:30;101436.88;;;11.17;80.67
74790;BME280;63318;52.406;13.416;2023-10-09T09:59:03;101439.41;;;11.20;80.64
74790;BME280;63318;52.406;13.416;2023-10-09T10:01:32;101448.10;;;11.22;80.37
74790;BME280;63318;52.406;13.416;2023-10-09T10:04:18;101453.77;;;11.23;80.47
74790;BME280;63318;52.406;13.416;2023-10-09T10:06:46;101445.24;;;11.24;80.31
74790;BME280;63318;52.406;13.416;2023-10-09T10:09:35;101446.08;;;11.26;80.36
74790;BME280;63318;52.406;13.416;2023-10-09T10:12:04;101443.06;;;11.28;80.31
74790;BME280;63318;52.406;13.416;2023-10-09T10:14:52;101443.02;;;11.30;80.39
74790;BME280;63318;52.406;13.416;2023-10-09T10:17:21;101436.40;;;11.34;80.51
74790;BME280;63318;52.406;13.416;2023-10-09T10:20:03;101431.47;;;11.37;80.52
74790;BME280;63318;52.406;13.416;2023-10-09T10:22:31;101434.55;;;11.39;80.26
74790;BME280;63318;52.406;13.416;2023-10-09T10:25:00;101433.55;;;11.40;80.31
74790;BME280;63318;52.406;13.416;2023-10-09T10:27:28;101430.00;;;11.41;80.41
74790;BME280;63318;52.406;13.416;2023-10-09T10:30:29;101429.96;;;11.42;80.27
74790;BME280;63318;52.406;13.416;2023-10-09T10:32:59;101429.36;;;11.43;80.43
74790;BME280;63318;52.406;13.416;2023-10-09T10:35:27;101426.92;;;11.43;80.41
74790;BME280;63318;52.406;13.416;2023-10-09T10:37:56;101430.41;;;11.43;80.23
74790;BME280;63318;52.406;13.416;2023-10-09T10:40:25;101430.77;;;11.41;80.30
74790;BME280;63318;52.406;13.416;2023-10-09T10:42:53;101433.48;;;11.42;80.38
74790;BME280;63318;52.406;13.416;2023-10-09T10:45:22;101426.65;;;11.44;80.49
74790;BME280;63318;52.406;13.416;2023-10-09T10:47:50;101419.38;;;11.47;80.36
74790;BME280;63318;52.406;13.416;2023-10-09T10:50:21;101416.52;;;11.49;80.30
74790;BME280;63318;52.406;13.416;2023-10-09T10:52:49;101418.94;;;11.52;80.37
74790;BME280;63318;52.406;13.416;2023-10-09T10:55:17;101419.30;;;11.56;80.43
74790;BME280;63318;52.406;13.416;2023-10-09T10:57:46;101418.94;;;11.59;80.23
74790;BME280;63318;52.406;13.416;2023-10-09T11:00:15;101421.98;;;11.62;80.23
74790;BME280;63318;52.406;13.416;2023-10-09T11:02:45;101428.86;;;11.65;80.18
74790;BME280;63318;52.406;13.416;2023-10-09T11:05:14;101419.73;;;11.67;79.97
74790;BME280;63318;52.406;13.416;2023-10-09T11:07:42;101419.95;;;11.68;79.84
74790;BME280;63318;52.406;13.416;2023-10-09T11:10:11;101425.92;;;11.70;79.89
74790;BME280;63318;52.406;13.416;2023-10-09T11:12:46;101416.13;;;11.70;79.66
74790;BME280;63318;52.406;13.416;2023-10-09T11:15:14;101407.38;;;11.70;79.65
74790;BME280;63318;52.406;13.416;2023-10-09T11:17:42;101408.65;;;11.69;79.68
74790;BME280;63318;52.406;13.416;2023-10-09T11:20:11;101416.34;;;11.69;79.63
74790;BME280;63318;52.406;13.416;2023-10-09T11:22:40;101415.42;;;11.71;79.64
74790;BME280;63318;52.406;13.416;2023-10-09T11:25:09;101415.77;;;11.75;79.64
74790;BME280;63318;52.406;13.416;2023-10-09T11:27:39;101420.77;;;11.79;79.57
74790;BME280;63318;52.406;13.416;2023-10-09T11:30:10;101415.39;;;11.82;79.52
74790;BME280;63318;52.406;13.416;2023-10-09T11:32:39;101405.00;;;11.85;79.56
74790;BME280;63318;52.406;13.416;2023-10-09T11:35:14;101393.11;;;11.88;79.60
74790;BME280;63318;52.406;13.416;2023-10-09T11:37:43;101382.33;;;11.90;79.44
74790;BME280;63318;52.406;13.416;2023-10-09T11:40:31;101378.79;;;11.93;79.35
74790;BME280;63318;52.406;13.416;2023-10-09T11:43:02;101379.45;;;12.00;79.42
74790;BME280;63318;52.406;13.416;2023-10-09T11:45:31;101380.88;;;12.04;79.35
74790;BME280;63318;52.406;13.416;2023-10-09T11:48:15;101387.91;;;12.09;79.36
74790;BME280;63318;52.406;13.416;2023-10-09T11:50:45;101390.27;;;12.10;79.12
74790;BME280;63318;52.406;13.416;2023-10-09T11:53:14;101395.11;;;12.10;79.08
74790;BME280;63318;52.406;13.416;2023-10-09T11:55:42;101396.27;;;12.11;79.10
74790;BME280;63318;52.406;13.416;2023-10-09T11:58:10;101389.10;;;12.11;78.98
74790;BME280;63318;52.406;13.416;2023-10-09T12:00:39;101383.86;;;12.11;78.86
74790;BME280;63318;52.406;13.416;2023-10-09T12:03:07;101381.08;;;12.09;78.83
74790;BME280;63318;52.406;13.416;2023-10-09T12:05:35;101376.94;;;12.08;78.79
74790;BME280;63318;52.406;13.416;2023-10-09T12:08:05;101375.19;;;12.05;78.80
74790;BME280;63318;52.406;13.416;2023-10-09T12:10:33;101366.66;;;12.04;78.84
74790;BME280;63318;52.406;13.416;2023-10-09T12:13:02;101361.93;;;12.03;78.94
74790;BME280;63318;52.406;13.416;2023-10-09T12:15:30;101360.34;;;12.00;78.94
74790;BME280;63318;52.406;13.416;2023-10-09T12:17:59;101362.93;;;11.97;78.99
74790;BME280;63318;52.406;13.416;2023-10-09T12:20:27;101371.48;;;11.93;78.96
74790;BME280;63318;52.406;13.416;2023-10-09T12:22:55;101380.75;;;11.89;78.92
74790;BME280;63318;52.406;13.416;2023-10-09T12:25:24;101384.91;;;11.86;79.12
74790;BME280;63318;52.406;13.416;2023-10-09T12:27:52;101385.45;;;11.84;79.13
74790;BME280;63318;52.406;13.416;2023-10-09T12:30:21;101383.44;;;11.82;79.14
74790;BME280;63318;52.406;13.416;2023-10-09T12:32:49;101389.77;;;11.81;79.33
74790;BME280;63318;52.406;13.416;2023-10-09T12:35:17;101389.89;;;11.81;79.65
74790;BME280;63318;52.406;13.416;2023-10-09T12:37:46;101386.33;;;11.82;79.16
74790;BME280;63318;52.406;13.416;2023-10-09T12:40:14;101380.10;;;11.81;79.19
74790;BME280;63318;52.406;13.416;2023-10-09T12:42:42;101377.64;;;11.82;79.14
74790;BME280;63318;52.406;13.416;2023-10-09T12:45:12;101373.27;;;11.83;79.23
74790;BME280;63318;52.406;13.416;2023-10-09T12:47:40;101371.05;;;11.85;79.38
74790;BME280;63318;52.406;13.416;2023-10-09T12:50:09;101376.91;;;11.88;79.43
74790;BME280;63318;52.406;13.416;2023-10-09T12:52:37;101372.49;;;11.93;79.30